createdAt,value
2019-02-23T00:01:10.609Z,25.80
2019-02-23T00:03:40.929Z,26.57
2019-02-23T00:06:09.425Z,25.77
2019-02-23T00:08:38.224Z,25.13
2019-02-23T00:11:06.874Z,26.93
2019-02-23T00:13:35.575Z,25.10
2019-02-23T00:16:03.818Z,25.50
2019-02-23T00:18:32.242Z,26.00
2019-02-23T00:21:01.009Z,26.20
2019-02-23T00:23:29.737Z,26.87
2019-02-23T00:25:58.388Z,27.13
2019-02-23T00:28:26.876Z,27.83
2019-02-23T00:30:55.590Z,26.97
2019-02-23T00:33:24.250Z,27.20
2019-02-23T00:35:52.726Z,25.63
2019-02-23T00:38:21.483Z,27.43
2019-02-23T00:40:50.300Z,26.17
2019-02-23T00:43:18.967Z,25.70
2019-02-23T00:45:47.701Z,25.73
2019-02-23T00:48:15.945Z,26.67
2019-02-23T00:50:45.662Z,27.57
2019-02-23T00:53:14.591Z,28.23
2019-02-23T00:55:43.238Z,28.53
2019-02-23T00:58:12.048Z,28.20
2019-02-23T01:00:41.045Z,30.00
2019-02-23T01:03:09.390Z,28.87
2019-02-23T01:05:38.174Z,27.87
2019-02-23T01:08:06.494Z,29.83
2019-02-23T01:10:34.940Z,30.80
2019-02-23T01:13:03.613Z,29.50
2019-02-23T01:15:32.333Z,28.20
2019-02-23T01:18:01.017Z,28.50
2019-02-23T01:20:29.662Z,28.93
2019-02-23T01:22:58.388Z,29.87
2019-02-23T01:25:26.958Z,29.33
2019-02-23T01:27:55.522Z,30.23
2019-02-23T01:30:24.504Z,28.77
2019-02-23T01:32:52.993Z,28.53
2019-02-23T01:35:20.890Z,29.23
2019-02-23T01:37:49.376Z,28.27
2019-02-23T01:40:18.134Z,29.10
2019-02-23T01:42:46.808Z,28.77
2019-02-23T01:45:15.524Z,28.93
2019-02-23T01:47:43.874Z,28.60
2019-02-23T01:50:13.023Z,27.80
2019-02-23T01:52:41.394Z,29.53
2019-02-23T01:55:09.825Z,27.23
2019-02-23T01:57:38.509Z,28.83
2019-02-23T02:00:09.861Z,28.87
2019-02-23T02:02:38.735Z,30.90
2019-02-23T02:05:09.292Z,29.40
2019-02-23T02:07:37.998Z,28.57
2019-02-23T02:10:08.798Z,29.03
2019-02-23T02:12:37.745Z,28.83
2019-02-23T02:15:08.686Z,29.67
2019-02-23T02:17:37.110Z,31.33
2019-02-23T02:20:10.942Z,30.97
2019-02-23T02:22:35.820Z,31.17
2019-02-23T02:25:04.502Z,29.90
2019-02-23T02:27:33.186Z,31.50
2019-02-23T02:30:01.926Z,32.50
2019-02-23T02:32:30.546Z,31.00
2019-02-23T02:34:59.238Z,32.03
2019-02-23T02:37:27.954Z,31.87
2019-02-23T02:39:56.611Z,33.53
2019-02-23T02:42:25.294Z,33.13
2019-02-23T02:44:54.015Z,33.20
2019-02-23T02:47:22.466Z,32.67
2019-02-23T02:49:51.151Z,33.13
2019-02-23T02:52:19.878Z,32.60
2019-02-23T02:54:48.327Z,32.43
2019-02-23T02:57:17.068Z,29.83
2019-02-23T02:59:45.426Z,31.60
2019-02-23T03:02:15.466Z,30.60
2019-02-23T03:04:44.295Z,31.47
2019-02-23T03:07:12.918Z,30.70
2019-02-23T03:09:41.449Z,29.60
2019-02-23T03:12:10.141Z,30.33
2019-02-23T03:14:38.654Z,31.90
2019-02-23T03:17:07.310Z,33.03
2019-02-23T03:19:35.789Z,32.70
2019-02-23T03:22:04.211Z,32.43
2019-02-23T03:24:35.827Z,33.27
2019-02-23T03:27:04.558Z,33.90
2019-02-23T03:29:33.202Z,32.97
2019-02-23T03:32:02.282Z,33.77
2019-02-23T03:34:31.009Z,35.77
2019-02-23T03:36:59.532Z,34.70
2019-02-23T03:39:39.828Z,37.30
2019-02-23T03:42:08.535Z,37.43
2019-02-23T03:44:36.889Z,38.27
2019-02-23T03:47:05.420Z,38.40
2019-02-23T03:49:35.586Z,36.47
2019-02-23T03:52:04.557Z,36.83
2019-02-23T03:54:33.423Z,36.57
2019-02-23T03:57:02.084Z,35.50
2019-02-23T03:59:31.197Z,34.47
2019-02-23T04:01:59.864Z,35.17
2019-02-23T04:04:28.830Z,35.50
2019-02-23T04:06:57.247Z,34.30
2019-02-23T04:09:26.189Z,35.73
2019-02-23T04:11:54.975Z,35.83
2019-02-23T04:14:23.674Z,34.73
2019-02-23T04:16:52.585Z,35.53
2019-02-23T04:19:21.266Z,35.27
2019-02-23T04:21:49.921Z,37.07
2019-02-23T04:24:18.641Z,35.43
2019-02-23T04:26:47.301Z,36.60
2019-02-23T04:29:15.774Z,37.17
2019-02-23T04:31:45.538Z,35.50
2019-02-23T04:34:14.892Z,35.83
2019-02-23T04:36:43.374Z,38.23
2019-02-23T04:39:12.206Z,37.77
2019-02-23T04:41:40.651Z,37.00
2019-02-23T04:44:09.470Z,37.17
2019-02-23T04:46:38.438Z,37.10
2019-02-23T04:49:07.106Z,38.37
2019-02-23T04:51:35.490Z,37.07
2019-02-23T04:54:04.301Z,37.90
2019-02-23T04:56:32.970Z,39.33
2019-02-23T04:59:01.653Z,39.10
2019-02-23T05:01:30.381Z,39.03
2019-02-23T05:03:58.819Z,39.60
2019-02-23T05:06:27.491Z,38.43
2019-02-23T05:08:56.213Z,38.67
2019-02-23T05:11:24.880Z,40.20
2019-02-23T05:13:53.553Z,39.77
2019-02-23T05:16:22.274Z,39.77
2019-02-23T05:18:50.913Z,40.00
2019-02-23T05:21:26.214Z,39.47
2019-02-23T05:23:53.152Z,39.53
2019-02-23T05:26:21.586Z,39.43
2019-02-23T05:28:50.363Z,40.53
2019-02-23T05:31:22.038Z,39.73
2019-02-23T05:33:49.590Z,37.97
2019-02-23T05:36:18.273Z,39.67
2019-02-23T05:38:46.928Z,39.73
2019-02-23T05:41:15.229Z,39.30
2019-02-23T05:43:43.717Z,40.17
2019-02-23T05:46:12.438Z,40.90
2019-02-23T05:48:41.084Z,39.20
2019-02-23T05:51:09.476Z,38.13
2019-02-23T05:53:38.290Z,37.97
2019-02-23T05:56:06.738Z,38.00
2019-02-23T05:58:35.125Z,37.63
2019-02-23T06:01:03.544Z,36.37
2019-02-23T06:03:32.385Z,48.17
2019-02-23T06:06:01.068Z,58.53
2019-02-23T06:08:29.594Z,54.47
2019-02-23T06:10:58.241Z,47.87
2019-02-23T06:13:26.731Z,42.20
2019-02-23T06:15:59.401Z,40.30
2019-02-23T06:18:28.309Z,39.47
2019-02-23T06:20:56.763Z,39.77
2019-02-23T06:23:25.593Z,39.17
2019-02-23T06:25:54.242Z,40.10
2019-02-23T06:28:22.788Z,38.20
2019-02-23T06:30:51.630Z,39.30
2019-02-23T06:33:20.586Z,38.23
2019-02-23T06:35:49.097Z,39.47
2019-02-23T06:38:18.282Z,38.57
2019-02-23T06:40:47.394Z,37.87
2019-02-23T06:43:16.245Z,42.60
2019-02-23T06:45:45.644Z,39.20
2019-02-23T06:48:14.568Z,38.83
2019-02-23T06:50:43.739Z,39.63
2019-02-23T06:53:14.701Z,40.20
2019-02-23T06:55:43.493Z,39.67
2019-02-23T06:58:12.908Z,46.57
2019-02-23T07:00:42.297Z,46.77
2019-02-23T07:03:11.220Z,42.13
2019-02-23T07:05:40.269Z,45.70
2019-02-23T07:08:10.383Z,42.33
2019-02-23T07:10:39.694Z,41.97
2019-02-23T07:13:08.589Z,40.43
2019-02-23T07:15:37.510Z,42.00
2019-02-23T07:18:06.433Z,46.77
2019-02-23T07:20:43.799Z,41.73
2019-02-23T07:23:07.037Z,40.93
2019-02-23T07:25:35.959Z,41.07
2019-02-23T07:28:04.761Z,42.30
2019-02-23T07:30:35.245Z,45.33
2019-02-23T07:33:05.133Z,42.10
2019-02-23T07:35:34.048Z,41.03
2019-02-23T07:38:02.973Z,41.77
2019-02-23T07:40:31.901Z,40.17
2019-02-23T07:43:00.696Z,40.60
2019-02-23T07:45:29.499Z,40.90
2019-02-23T07:48:00.220Z,39.40
2019-02-23T07:50:28.901Z,41.23
2019-02-23T07:52:57.721Z,44.90
2019-02-23T07:55:28.189Z,42.50
2019-02-23T07:57:56.873Z,42.07
2019-02-23T08:00:25.670Z,41.67
2019-02-23T08:02:54.356Z,42.87
2019-02-23T08:05:29.033Z,42.03
2019-02-23T08:07:58.678Z,44.20
2019-02-23T08:10:27.481Z,45.80
2019-02-23T08:12:57.125Z,45.87
2019-02-23T08:15:27.606Z,45.00
2019-02-23T08:17:56.669Z,43.37
2019-02-23T08:20:26.169Z,43.20
2019-02-23T08:22:56.419Z,45.47
2019-02-23T08:25:26.652Z,44.50
2019-02-23T08:27:55.578Z,41.23
2019-02-23T08:30:24.855Z,38.97
2019-02-23T08:32:53.899Z,41.17
2019-02-23T08:35:23.182Z,41.87
2019-02-23T08:37:53.304Z,42.03
2019-02-23T08:40:25.831Z,39.47
2019-02-23T08:42:55.469Z,40.47
2019-02-23T08:45:24.749Z,40.10
2019-02-23T08:47:56.416Z,39.00
2019-02-23T08:50:25.593Z,43.77
2019-02-23T08:52:54.520Z,38.80
2019-02-23T08:55:23.442Z,39.00
2019-02-23T08:57:59.811Z,37.93
2019-02-23T09:00:29.810Z,38.77
2019-02-23T09:02:58.848Z,39.03
2019-02-23T09:05:32.088Z,38.53
2019-02-23T09:08:01.502Z,38.43
2019-02-23T09:10:30.890Z,38.40
2019-02-23T09:13:01.976Z,37.90
2019-02-23T09:15:30.775Z,39.70
2019-02-23T09:17:59.825Z,39.90
2019-02-23T09:20:29.666Z,40.90
2019-02-23T09:23:00.438Z,41.00
2019-02-23T09:25:29.462Z,41.83
2019-02-23T09:27:58.864Z,40.17
2019-02-23T09:30:27.907Z,45.47
2019-02-23T09:32:58.034Z,41.90
2019-02-23T09:35:28.633Z,44.70
2019-02-23T09:37:58.874Z,40.17
2019-02-23T09:40:28.034Z,42.80
2019-02-23T09:42:56.836Z,55.57
2019-02-23T09:45:25.882Z,40.83
2019-02-23T09:47:54.874Z,38.23
2019-02-23T09:50:24.097Z,43.07
2019-02-23T09:52:53.365Z,37.10
2019-02-23T09:55:23.247Z,36.97
2019-02-23T09:57:52.180Z,37.03
2019-02-23T10:00:21.454Z,36.03
2019-02-23T10:02:50.375Z,35.70
2019-02-23T10:05:19.295Z,37.60
2019-02-23T10:07:48.458Z,36.00
2019-02-23T10:10:17.621Z,39.40
2019-02-23T10:12:47.751Z,37.40
2019-02-23T10:15:16.544Z,37.47
2019-02-23T10:17:45.353Z,36.03
2019-02-23T10:20:14.988Z,35.90
2019-02-23T10:22:43.912Z,38.67
2019-02-23T10:25:12.712Z,35.57
2019-02-23T10:27:42.356Z,36.77
2019-02-23T10:30:11.647Z,34.93
2019-02-23T10:32:41.646Z,35.43
2019-02-23T10:35:10.690Z,36.30
2019-02-23T10:37:40.897Z,35.20
2019-02-23T10:40:10.570Z,39.43
2019-02-23T10:42:41.288Z,36.77
2019-02-23T10:45:10.810Z,35.37
2019-02-23T10:47:40.092Z,36.57
2019-02-23T10:50:09.492Z,37.33
2019-02-23T10:52:38.301Z,34.97
2019-02-23T10:55:09.136Z,36.77
2019-02-23T10:57:38.183Z,36.67
2019-02-23T11:00:13.822Z,37.90
2019-02-23T11:02:44.682Z,37.27
2019-02-23T11:05:14.198Z,37.40
2019-02-23T11:07:43.231Z,36.80
2019-02-23T11:10:13.109Z,36.27
2019-02-23T11:12:41.672Z,35.40
2019-02-23T11:15:10.834Z,36.47
2019-02-23T11:17:39.996Z,35.37
2019-02-23T11:20:09.522Z,35.13
2019-02-23T11:22:38.681Z,36.27
2019-02-23T11:25:07.841Z,37.67
2019-02-23T11:27:36.648Z,36.07
2019-02-23T11:30:06.533Z,35.13
2019-02-23T11:32:36.546Z,34.57
2019-02-23T11:35:05.451Z,34.63
2019-02-23T11:37:34.012Z,35.30
2019-02-23T11:40:03.176Z,34.00
2019-02-23T11:42:31.977Z,34.80
2019-02-23T11:45:01.163Z,40.33
2019-02-23T11:47:30.067Z,33.73
2019-02-23T11:49:58.743Z,32.40
2019-02-23T11:52:28.625Z,33.03
2019-02-23T11:54:58.509Z,31.40
2019-02-23T11:57:27.312Z,32.07
2019-02-23T11:59:55.872Z,51.67
2019-02-23T12:02:24.554Z,30.87
2019-02-23T12:04:53.476Z,31.77
2019-02-23T12:07:22.518Z,30.33
2019-02-23T12:09:51.323Z,62.27
2019-02-23T12:12:25.402Z,29.77
2019-02-23T12:14:54.207Z,30.60
2019-02-23T12:17:23.247Z,31.23
2019-02-23T12:19:52.294Z,30.93
2019-02-23T12:22:21.330Z,30.67
2019-02-23T12:24:50.253Z,28.57
2019-02-23T12:27:19.537Z,29.43
2019-02-23T12:29:48.576Z,30.17
2019-02-23T12:32:17.506Z,29.77
2019-02-23T12:34:46.541Z,28.43
2019-02-23T12:37:15.704Z,27.17
2019-02-23T12:39:45.464Z,28.67
2019-02-23T12:42:14.267Z,27.53
2019-02-23T12:44:43.070Z,29.37
2019-02-23T12:47:12.112Z,28.67
2019-02-23T12:49:41.993Z,29.23
2019-02-23T12:52:10.794Z,29.33
2019-02-23T12:54:39.838Z,29.97
2019-02-23T12:57:08.639Z,29.70
2019-02-23T12:59:37.561Z,30.50
2019-02-23T13:02:06.370Z,28.93
2019-02-23T13:04:36.487Z,27.77
2019-02-23T13:07:06.736Z,28.47
2019-02-23T13:09:39.010Z,28.93
2019-02-23T13:13:03.974Z,28.20
2019-02-23T13:15:40.575Z,29.53
2019-02-23T13:18:50.059Z,29.87
2019-02-23T13:21:55.462Z,30.03
2019-02-23T13:24:53.904Z,27.97
2019-02-23T13:28:12.505Z,29.73
2019-02-23T13:31:37.830Z,27.40
2019-02-23T13:34:39.269Z,28.70
2019-02-23T13:37:19.233Z,27.47
2019-02-23T13:40:31.355Z,30.60
2019-02-23T13:43:52.958Z,29.63
2019-02-23T13:46:36.290Z,27.33
2019-02-23T13:49:50.924Z,27.83
2019-02-23T13:53:25.726Z,25.53
2019-02-23T13:56:38.571Z,25.30
2019-02-23T13:59:39.771Z,24.13
2019-02-23T14:02:40.145Z,24.43
2019-02-23T14:05:33.297Z,25.27
2019-02-23T14:08:39.539Z,25.47
2019-02-23T14:11:34.983Z,25.83
2019-02-23T14:14:18.070Z,25.07
2019-02-23T14:17:25.869Z,24.60
2019-02-23T14:20:16.750Z,26.57
2019-02-23T14:23:19.391Z,25.17
2019-02-23T14:26:47.955Z,26.40
2019-02-23T14:30:08.237Z,28.43
2019-02-23T14:33:26.736Z,26.17
2019-02-23T14:36:01.769Z,26.63
2019-02-23T14:39:13.219Z,23.60
2019-02-23T14:42:07.407Z,23.87
2019-02-23T14:45:10.866Z,24.47
2019-02-23T14:48:12.217Z,24.03
2019-02-23T14:50:58.539Z,25.83
2019-02-23T14:53:49.662Z,25.93
2019-02-23T14:57:10.424Z,26.57
2019-02-23T15:00:05.142Z,27.13
2019-02-23T15:03:15.113Z,26.37
2019-02-23T15:06:22.077Z,27.43
2019-02-23T15:09:08.392Z,27.13
2019-02-23T15:12:26.512Z,26.27
2019-02-23T15:15:24.596Z,27.37
2019-02-23T15:18:36.987Z,26.13
2019-02-23T15:22:02.766Z,26.20
2019-02-23T15:24:51.383Z,26.20
2019-02-23T15:28:26.680Z,25.27
2019-02-23T15:31:22.065Z,24.93
2019-02-23T15:34:33.140Z,24.27
2019-02-23T15:37:27.253Z,24.93
2019-02-23T15:40:33.309Z,22.83
2019-02-23T15:43:44.540Z,22.97
2019-02-23T15:46:48.305Z,22.43
2019-02-23T15:49:30.560Z,21.90
2019-02-23T15:52:00.906Z,24.47
2019-02-23T15:54:30.267Z,23.27
2019-02-23T15:56:59.438Z,24.13
2019-02-23T15:59:28.597Z,26.07
2019-02-23T16:01:57.755Z,24.17
2019-02-23T16:04:26.795Z,21.47
2019-02-23T16:06:55.717Z,20.23
2019-02-23T16:09:24.641Z,22.53
2019-02-23T16:11:53.924Z,20.93
2019-02-23T16:14:22.844Z,20.40
2019-02-23T16:16:53.455Z,18.53
2019-02-23T16:19:23.215Z,20.40
2019-02-23T16:21:53.146Z,20.57
2019-02-23T16:24:22.548Z,18.27
2019-02-23T16:26:52.015Z,18.33
2019-02-23T16:29:21.058Z,17.67
2019-02-23T16:31:50.338Z,18.67
2019-02-23T16:34:19.634Z,18.50
2019-02-23T16:36:48.542Z,18.57
2019-02-23T16:39:18.067Z,16.80
2019-02-23T16:41:47.107Z,17.50
2019-02-23T16:44:16.391Z,17.20
2019-02-23T16:46:46.524Z,16.80
2019-02-23T16:49:15.822Z,17.73
2019-02-23T16:51:44.960Z,19.73
2019-02-23T16:54:14.717Z,17.90
2019-02-23T16:56:44.359Z,17.90
2019-02-23T16:59:12.930Z,17.00
2019-02-23T17:01:42.204Z,17.37
2019-02-23T17:04:11.485Z,17.33
2019-02-23T17:06:40.532Z,17.00
2019-02-23T17:09:09.934Z,16.63
2019-02-23T17:11:38.855Z,15.83
2019-02-23T17:14:08.258Z,16.80
2019-02-23T17:16:37.296Z,16.97
2019-02-23T17:19:06.339Z,19.23
2019-02-23T17:21:35.262Z,17.87
2019-02-23T17:24:04.062Z,18.40
2019-02-23T17:26:36.646Z,18.53
2019-02-23T17:29:04.427Z,19.07
2019-02-23T17:31:33.719Z,20.80
2019-02-23T17:34:02.755Z,20.20
2019-02-23T17:36:31.913Z,20.87
2019-02-23T17:39:01.196Z,20.30
2019-02-23T17:41:32.159Z,21.13
2019-02-23T17:44:00.977Z,25.03
2019-02-23T17:46:30.003Z,26.70
2019-02-23T17:48:58.927Z,27.83
2019-02-23T17:51:27.976Z,26.90
2019-02-23T17:53:57.976Z,27.50
2019-02-23T17:56:27.011Z,30.87
2019-02-23T17:58:55.932Z,29.27
2019-02-23T18:01:25.525Z,30.73
2019-02-23T18:03:54.498Z,30.83
2019-02-23T18:06:23.546Z,29.47
2019-02-23T18:08:55.238Z,28.60
2019-02-23T18:11:25.347Z,27.23
2019-02-23T18:13:54.751Z,26.97
2019-02-23T18:16:23.787Z,26.63
2019-02-23T18:18:52.597Z,25.40
2019-02-23T18:21:21.758Z,26.60
2019-02-23T18:23:50.677Z,26.47
2019-02-23T18:26:21.358Z,29.23
2019-02-23T18:28:50.924Z,29.53
2019-02-23T18:31:20.921Z,31.03
2019-02-23T18:33:51.523Z,31.00
2019-02-23T18:36:20.685Z,30.23
2019-02-23T18:38:51.307Z,30.80
2019-02-23T18:41:20.930Z,30.03
2019-02-23T18:43:51.171Z,31.20
2019-02-23T18:46:19.974Z,32.27
2019-02-23T18:48:49.383Z,33.20
2019-02-23T18:51:19.017Z,37.37
2019-02-23T18:53:48.300Z,37.40
2019-02-23T18:56:17.703Z,36.80
2019-02-23T18:58:46.984Z,36.83
2019-02-23T19:01:17.346Z,37.77
2019-02-23T19:03:46.279Z,39.30
2019-02-23T19:06:15.557Z,36.93
2019-02-23T19:08:44.712Z,35.27
2019-02-23T19:11:14.234Z,33.80
2019-02-23T19:13:43.395Z,31.97
2019-02-23T19:16:12.797Z,32.57
2019-02-23T19:18:41.961Z,31.07
2019-02-23T19:21:10.888Z,32.50
2019-02-23T19:23:43.528Z,36.70
2019-02-23T19:26:12.817Z,36.00
2019-02-23T19:28:43.348Z,36.57
2019-02-23T19:31:12.935Z,36.50
2019-02-23T19:33:41.743Z,35.53
2019-02-23T19:36:10.903Z,34.97
2019-02-23T19:38:41.018Z,35.07
2019-02-23T19:41:10.663Z,39.90
2019-02-23T19:43:39.828Z,40.67
2019-02-23T19:46:09.225Z,43.17
2019-02-23T19:48:38.394Z,41.90
2019-02-23T19:51:09.109Z,40.40
2019-02-23T19:53:39.115Z,37.17
2019-02-23T19:56:09.472Z,35.47
2019-02-23T19:58:38.395Z,35.83
2019-02-23T20:01:07.922Z,40.13
2019-02-23T20:03:37.205Z,40.40
2019-02-23T20:06:06.265Z,44.67
2019-02-23T20:08:35.528Z,37.73
2019-02-23T20:11:04.687Z,38.87
2019-02-23T20:13:33.852Z,36.07
2019-02-23T20:16:03.374Z,39.13
2019-02-23T20:18:34.101Z,40.63
2019-02-23T20:21:03.383Z,39.63
2019-02-23T20:23:32.548Z,40.57
2019-02-23T20:26:08.906Z,40.63
2019-02-23T20:28:37.703Z,45.20
2019-02-23T20:31:06.624Z,41.57
2019-02-23T20:33:36.506Z,39.20
2019-02-23T20:36:05.431Z,38.97
2019-02-23T20:38:35.190Z,42.03
2019-02-23T20:41:04.886Z,38.83
2019-02-23T20:43:33.761Z,41.37
2019-02-23T20:46:02.797Z,39.27
2019-02-23T20:48:32.081Z,40.00
2019-02-23T20:51:03.046Z,37.40
2019-02-23T20:53:32.444Z,39.87
2019-02-23T20:56:02.446Z,39.47
2019-02-23T20:58:31.851Z,41.63
2019-02-23T21:01:03.290Z,40.07
2019-02-23T21:03:33.173Z,39.43
2019-02-23T21:06:03.295Z,42.97
2019-02-23T21:08:33.057Z,41.37
2019-02-23T21:11:03.419Z,44.53
2019-02-23T21:13:32.850Z,44.30
2019-02-23T21:16:02.858Z,43.63
2019-02-23T21:18:33.320Z,44.03
2019-02-23T21:21:03.427Z,44.70
2019-02-23T21:23:32.963Z,42.97
2019-02-23T21:26:08.474Z,39.63
2019-02-23T21:28:38.114Z,38.73
2019-02-23T21:31:09.077Z,40.33
2019-02-23T21:33:39.319Z,40.50
2019-02-23T21:36:08.964Z,39.73
2019-02-23T21:38:39.805Z,40.17
2019-02-23T21:41:10.166Z,38.90
2019-02-23T21:43:39.087Z,40.60
2019-02-23T21:46:08.609Z,40.07
2019-02-23T21:48:37.533Z,38.43
2019-02-23T21:51:06.815Z,36.17
2019-02-23T21:53:36.104Z,38.10
2019-02-23T21:56:05.504Z,42.07
2019-02-23T21:58:34.670Z,41.83
2019-02-23T22:01:03.702Z,42.00
2019-02-23T22:03:33.590Z,39.77
2019-02-23T22:06:03.480Z,42.53
2019-02-23T22:08:32.641Z,42.20
2019-02-23T22:11:01.793Z,43.77
2019-02-23T22:13:30.596Z,43.10
2019-02-23T22:16:00.359Z,41.30
2019-02-23T22:18:29.999Z,42.33
2019-02-23T22:20:59.526Z,41.60
2019-02-23T22:23:38.050Z,40.03
2019-02-23T22:26:07.213Z,38.70
2019-02-23T22:28:37.211Z,40.10
2019-02-23T22:31:06.017Z,39.80
2019-02-23T22:33:35.063Z,40.80
2019-02-23T22:36:04.695Z,40.20
2019-02-23T22:38:33.737Z,40.90
2019-02-23T22:41:02.898Z,39.63
2019-02-23T22:43:31.942Z,42.30
2019-02-23T22:46:01.103Z,40.40
2019-02-23T22:48:30.040Z,37.57
2019-02-23T22:50:58.947Z,36.97
2019-02-23T22:53:27.990Z,35.80
2019-02-23T22:55:57.157Z,37.30
2019-02-23T22:58:26.073Z,36.13
2019-02-23T23:00:57.521Z,37.73
2019-02-23T23:03:29.802Z,37.73
2019-02-23T23:05:58.858Z,36.13
2019-02-23T23:08:28.362Z,37.73
2019-02-23T23:10:57.404Z,37.20
2019-02-23T23:13:27.047Z,36.63
2019-02-23T23:15:56.094Z,35.57
2019-02-23T23:18:25.012Z,35.70
2019-02-23T23:20:54.418Z,39.57
2019-02-23T23:23:23.696Z,39.60
2019-02-23T23:25:53.458Z,39.43
2019-02-23T23:28:26.102Z,40.27
2019-02-23T23:30:55.866Z,40.43
2019-02-23T23:33:25.144Z,38.87
2019-02-23T23:36:06.187Z,39.67
2019-02-23T23:38:35.347Z,44.00
2019-02-23T23:41:06.195Z,43.43
2019-02-23T23:43:35.595Z,41.30
2019-02-23T23:46:04.635Z,42.50
2019-02-23T23:48:33.800Z,43.87
2019-02-23T23:51:03.081Z,42.97
2019-02-23T23:53:32.241Z,41.60
2019-02-23T23:56:01.285Z,39.60
2019-02-23T23:58:30.085Z,38.30
